Alafaya, FL (32816)

7:45 AM EDT on June 03, 2015 (GMT -0400)
UCF Area / WUCF-FM | | Change Station
CLOSE
Current Station
Personal Weather Station
Location: Orlando, FL
Elevation: 85 ft
Nearby Weather Stations

Elev 85 ft 28.60 °N, 81.20 °W | Updated 9 seconds ago

Partly Cloudy
Partly Cloudy
71.1 °F
Feels Like 71.1 °F
N
0.0
Wind Variable Wind from NNE
Gusts 0.0 mph

Today
High -- | Low -- °F
--% Chance of Precip.
Yesterday
High -- | Low -- °F
Precip. -- in
6:27 AM 8:19 PM
Full, 99% visible
Pressure 29.97 in
Visibility 10.0 miles
Clouds Few 4100 ft
Dew Point 70 °F
Humidity 97%
Rainfall 0.00 in
Snow Depth Not available.
UV 0 out of 12
Pollen 3.40 out of 12
Air Quality Not available.
Flu Activity Sporadic
METAR KORL 031053Z 00000KT 10SM FEW041 21/19 A2996 RMK AO2 SLP147 T02060194

More Conditions Fewer Conditions

Pressure 29.97 in
Visibility 10.0 miles
Clouds Few 4100 ft
Dew Point 70 °F
Humidity 97%
Rainfall 0.00 in
Snow Depth Not available.
UV 0 out of 12
Pollen 3.40 out of 12
Air Quality Not available.
Flu Activity Sporadic
METAR KORL 031053Z 00000KT 10SM FEW041 21/19 A2996 RMK AO2 SLP147 T02060194

More Conditions Fewer Conditions

Nowcast | as of 7:35 am EDT on June 3, 2015

Showers and thunderstorms over Brevard County will produce locally heavy rainfall between Cocoa and Palm Bay through 9:00 a.M. This morning. A quick one to two inches of rain in a 30 to 60 minute period is likely in some of the heavier rain showers and thunderstorms. Ponding of water on area roadways and minor local flooding is possible in some areas. Elsewhere...generally light rain showers and partly cloudy skies are expected this morning. Another round of showers and thunderstorms is expected later today...especially in the afternoon. Storm motion will be slow...but generally towards the north and east...with the main hazards being heavy rain and strong wind gusts up to 50 mph. Additional details...including graphics are available online at: http://www.Srh.NOAA.Gov/mlb/blog.Php

×

10-Day Weather Forecast

×

Almanac

Astronomy

Jun. 03, 2015 Rise Set
Actual Time
Civil Twilight
Nautical Twilight
Astronomical Twilight
Moon
Length of Visible Light
Length of Day
Tomorrow will be .
, % of the Moon is Illuminated

Today's Extremes

State Highs State Lows

Community

WunderPhotos

Upload Photos

1,826,205 photos uploaded!

WunderBlogs® & News

Nearby

Air Quality

  Air Quality AQ Index Pollutant
Not available.

Snow Depth

Station Depth Elevation

Earthquake Activity

City Distance Mag. Time & Date
Minimum magnitude displayed is 2.5.

Coastal Water Temperatures

Place Temperature

Stations

Nearby Weather Stations

Station Location Temp. Windchill Dew Point Humidity Wind Precip. Elev Updated Type